Time;durP1;ratioP1;P1;durP2;ratioP2;P2;SDS_P1;SDS_P2;PMS_P1;PMS_P2;Temp;Humidity;BMP_temperature;BMP_pressure;BME280_temperature;BME280_humidity;BME280_pressure;Samples;Min_cycle;Max_cycle;Signal;HPM_P1;HPM_P2
2021/10/07 00:01:39;;;;;;;;;;;;;;;12.18;81.08;100334.06;5069799;28;19919;-73
2021/10/07 00:04:04;;;;;;;;;;;;;;;12.19;80.71;100320.78;5069970;28;20366;-74
2021/10/07 00:06:30;;;;;;;;;;;;;;;12.22;80.95;100322.41;5070037;28;20327;-72
2021/10/07 00:08:55;;;;;;;;;;;;;;;12.19;81.54;100322.56;5052591;28;20290;-73
2021/10/07 00:11:20;;;;;;;;;;;;;;;12.22;81.36;100330.34;5068873;28;20257;-72
2021/10/07 00:13:45;;;;;;;;;;;;;;;12.22;81.58;100330.34;5069827;28;19920;-73
2021/10/07 00:16:11;;;;;;;;;;;;;;;12.20;80.71;100332.19;5052301;28;20435;-72
2021/10/07 00:18:37;;;;;;;;;;;;;;;12.18;80.75;100337.59;5069786;28;19916;-74
2021/10/07 00:21:06;;;;;;;;;;;;;;;12.16;81.11;100328.88;5068729;28;20368;-73
2021/10/07 00:23:35;;;;;;;;;;;;;;;12.15;80.99;100342.13;5066639;28;19912;-72
2021/10/07 00:26:01;;;;;;;;;;;;;;;12.14;80.92;100336.00;5061440;28;19912;-72
2021/10/07 00:28:30;;;;;;;;;;;;;;;12.13;81.36;100338.72;5066469;28;19919;-73
2021/10/07 00:30:58;;;;;;;;;;;;;;;12.12;81.31;100332.56;5069175;28;19912;-71
2021/10/07 00:33:28;;;;;;;;;;;;;;;12.13;81.19;100338.72;5069485;28;19912;-72
2021/10/07 00:36:11;;;;;;;;;;;;;;;12.13;81.14;100339.56;5069542;28;19912;-72
2021/10/07 00:41:20;;;;;;;;;;;;;;;12.07;81.16;100344.28;5068819;28;19958;-72
2021/10/07 00:43:46;;;;;;;;;;;;;;;12.02;81.44;100339.22;5051366;28;19916;-72
2021/10/07 00:46:11;;;;;;;;;;;;;;;11.99;81.18;100342.84;5070142;28;19916;-72
2021/10/07 00:48:36;;;;;;;;;;;;;;;11.97;81.47;100349.16;5051716;28;19987;-73
2021/10/07 00:51:01;;;;;;;;;;;;;;;11.93;82.17;100350.19;5068892;28;19967;-74
2021/10/07 00:53:26;;;;;;;;;;;;;;;11.89;81.89;100352.13;5069181;28;19919;-73
2021/10/07 00:55:52;;;;;;;;;;;;;;;11.88;81.22;100354.84;5069231;28;19916;-72
2021/10/07 00:58:17;;;;;;;;;;;;;;;11.86;81.78;100354.88;5069405;28;19987;-73
2021/10/07 01:00:43;;;;;;;;;;;;;;;11.85;81.46;100354.94;5044418;28;19925;-73
2021/10/07 01:03:08;;;;;;;;;;;;;;;11.81;81.42;100355.09;5065891;28;19920;-73
2021/10/07 01:05:34;;;;;;;;;;;;;;;11.80;81.98;100349.88;5069624;28;19913;-72
2021/10/07 01:07:59;;;;;;;;;;;;;;;11.77;82.11;100355.31;5069559;28;20370;-73
2021/10/07 01:10:24;;;;;;;;;;;;;;;11.76;82.28;100359.75;5069427;28;19912;-73
2021/10/07 01:12:50;;;;;;;;;;;;;;;11.75;82.40;100354.50;5070227;28;20284;-73
2021/10/07 01:15:15;;;;;;;;;;;;;;;11.74;82.28;100353.66;5056213;28;20368;-72
2021/10/07 01:17:40;;;;;;;;;;;;;;;11.72;81.97;100358.16;5068038;28;19913;-71
2021/10/07 01:20:06;;;;;;;;;;;;;;;11.70;82.13;100359.16;5065624;28;19935;-72
2021/10/07 01:22:32;;;;;;;;;;;;;;;11.68;82.45;100350.44;5066341;28;19917;-73
2021/10/07 01:24:59;;;;;;;;;;;;;;;11.65;82.36;100354.06;5067190;28;19927;-72
2021/10/07 01:27:25;;;;;;;;;;;;;;;11.65;82.48;100346.13;5070211;28;19912;-72
2021/10/07 01:29:54;;;;;;;;;;;;;;;11.63;82.62;100355.06;5068334;28;19912;-72
2021/10/07 01:32:20;;;;;;;;;;;;;;;11.60;82.34;100358.69;5065137;28;20411;-71
2021/10/07 01:34:45;;;;;;;;;;;;;;;11.56;82.53;100360.59;5064493;28;19912;-72
2021/10/07 01:37:10;;;;;;;;;;;;;;;11.57;82.97;100366.75;5060114;28;19975;-73
2021/10/07 01:39:35;;;;;;;;;;;;;;;11.56;82.79;100363.22;5049315;28;20288;-73
2021/10/07 01:42:00;;;;;;;;;;;;;;;11.55;82.98;100371.25;5048898;28;19912;-73
2021/10/07 01:44:26;;;;;;;;;;;;;;;11.55;82.83;100371.25;5031162;28;19995;-73
2021/10/07 01:46:52;;;;;;;;;;;;;;;11.55;82.61;100365.97;5049487;28;20376;-72
2021/10/07 01:49:17;;;;;;;;;;;;;;;11.51;82.90;100373.16;5049329;28;19936;-73
2021/10/07 01:51:42;;;;;;;;;;;;;;;11.54;82.65;100374.78;5048142;28;19955;-70
2021/10/07 01:54:08;;;;;;;;;;;;;;;11.55;82.57;100374.72;5030846;28;20368;-71
2021/10/07 01:56:33;;;;;;;;;;;;;;;11.55;83.02;100373.88;5049340;28;19920;-72
2021/10/07 01:58:59;;;;;;;;;;;;;;;11.55;83.02;100376.53;5048951;28;19916;-74
2021/10/07 02:01:24;;;;;;;;;;;;;;;11.59;82.88;100375.44;5048553;28;19912;-73
2021/10/07 02:03:49;;;;;;;;;;;;;;;11.61;82.94;100379.72;5048025;28;19913;-72
2021/10/07 02:06:15;;;;;;;;;;;;;;;11.61;82.55;100378.88;5049553;28;19916;-73
2021/10/07 02:08:40;;;;;;;;;;;;;;;11.61;82.86;100376.25;5051709;28;19914;-73
2021/10/07 02:11:05;;;;;;;;;;;;;;;11.59;82.41;100370.16;5052510;28;19921;-73
2021/10/07 02:13:30;;;;;;;;;;;;;;;11.58;82.96;100379.03;5055405;28;19927;-73
2021/10/07 02:15:58;;;;;;;;;;;;;;;11.57;83.14;100372.91;5055665;28;20380;-72
2021/10/07 02:18:23;;;;;;;;;;;;;;;11.54;82.91;100370.41;5054236;28;19913;-73
2021/10/07 02:20:48;;;;;;;;;;;;;;;11.54;83.17;100372.16;5053354;28;19966;-73
2021/10/07 02:23:14;;;;;;;;;;;;;;;11.53;83.42;100370.44;5052248;28;19913;-71
2021/10/07 02:25:39;;;;;;;;;;;;;;;11.53;82.72;100375.72;5052929;28;19919;-73
2021/10/07 02:28:04;;;;;;;;;;;;;;;11.52;82.82;100380.16;5055508;28;19967;-72
2021/10/07 02:30:29;;;;;;;;;;;;;;;11.52;82.86;100374.03;5052355;28;19913;-72
2021/10/07 02:32:55;;;;;;;;;;;;;;;11.52;83.19;100374.03;5051431;28;19920;-72
2021/10/07 02:35:20;;;;;;;;;;;;;;;11.53;83.42;100379.22;5052128;28;19912;-73
2021/10/07 02:37:46;;;;;;;;;;;;;;;11.55;83.45;100374.72;5051701;28;19916;-73
2021/10/07 02:40:12;;;;;;;;;;;;;;;11.57;83.13;100379.97;5034655;28;20354;-70
2021/10/07 02:42:38;;;;;;;;;;;;;;;11.58;83.58;100385.16;5054131;28;19976;-73
2021/10/07 02:45:05;;;;;;;;;;;;;;;11.60;83.34;100379.81;5057629;28;19920;-74
2021/10/07 02:47:30;;;;;;;;;;;;;;;11.64;83.36;100384.06;5052120;28;19913;-72
2021/10/07 02:49:56;;;;;;;;;;;;;;;11.69;83.31;100387.34;5051364;28;19958;-71
2021/10/07 02:52:21;;;;;;;;;;;;;;;11.71;82.88;100385.47;5032942;28;19921;-71
2021/10/07 02:54:46;;;;;;;;;;;;;;;11.75;83.27;100384.41;5051620;28;19913;-71
2021/10/07 02:57:11;;;;;;;;;;;;;;;11.78;83.05;100391.34;5051597;28;19921;-73
2021/10/07 02:59:36;;;;;;;;;;;;;;;11.79;82.80;100393.09;5051835;28;19927;-73
2021/10/07 03:02:02;;;;;;;;;;;;;;;11.83;82.69;100397.28;5050844;28;20288;-71
2021/10/07 03:04:27;;;;;;;;;;;;;;;11.83;82.81;100390.22;5051069;28;19920;-71
2021/10/07 03:06:52;;;;;;;;;;;;;;;11.85;83.21;100392.78;5051214;28;19915;-71
2021/10/07 03:09:17;;;;;;;;;;;;;;;11.88;82.99;100405.88;5051310;28;19925;-72
2021/10/07 03:11:43;;;;;;;;;;;;;;;11.88;83.05;100400.59;5050850;28;19919;-73
2021/10/07 03:14:08;;;;;;;;;;;;;;;11.92;82.87;100415.41;5050316;28;19919;-71
2021/10/07 03:16:33;;;;;;;;;;;;;;;11.93;82.66;100413.63;5033771;28;19913;-74
2021/10/07 03:18:59;;;;;;;;;;;;;;;11.95;82.65;100409.97;5050941;28;20643;-73
2021/10/07 03:21:24;;;;;;;;;;;;;;;11.97;82.44;100426.63;5051260;28;19957;-73
2021/10/07 03:23:49;;;;;;;;;;;;;;;11.98;82.99;100428.31;5051438;28;19913;-73
2021/10/07 03:26:14;;;;;;;;;;;;;;;12.03;83.09;100423.72;5035254;28;20422;-73
2021/10/07 03:28:40;;;;;;;;;;;;;;;12.06;82.49;100430.66;5051850;28;19912;-73
2021/10/07 03:31:05;;;;;;;;;;;;;;;12.08;82.48;100428.78;5067138;28;19913;-73
2021/10/07 03:33:30;;;;;;;;;;;;;;;12.12;82.36;100430.38;5054227;28;19912;-73
2021/10/07 03:35:55;;;;;;;;;;;;;;;12.13;82.64;100445.28;5038552;28;19912;-73
2021/10/07 03:38:20;;;;;;;;;;;;;;;12.13;82.56;100440.00;5073229;28;19967;-73
2021/10/07 03:40:46;;;;;;;;;;;;;;;12.11;82.09;100441.88;5073980;28;19918;-73
2021/10/07 03:43:11;;;;;;;;;;;;;;;12.07;82.17;100440.28;5071833;28;19927;-73
2021/10/07 03:45:36;;;;;;;;;;;;;;;12.06;83.07;100448.28;5071628;28;19916;-71
2021/10/07 03:48:01;;;;;;;;;;;;;;;12.05;82.93;100444.78;5040046;28;21217;-73
2021/10/07 03:50:27;;;;;;;;;;;;;;;12.03;82.54;100449.25;5030808;28;20005;-73
2021/10/07 03:52:52;;;;;;;;;;;;;;;12.04;83.05;100448.34;5048838;28;19912;-73
2021/10/07 03:55:18;;;;;;;;;;;;;;;12.05;82.74;100450.06;5047960;28;19924;-73
2021/10/07 03:57:43;;;;;;;;;;;;;;;12.05;82.77;100447.41;5028161;28;19959;-72
2021/10/07 04:00:09;;;;;;;;;;;;;;;12.01;83.28;100445.81;5050300;28;19955;-72
2021/10/07 04:02:34;;;;;;;;;;;;;;;11.97;83.01;100455.69;5031656;28;19917;-73
2021/10/07 04:04:59;;;;;;;;;;;;;;;11.96;83.15;100454.00;5050452;28;19928;-73
2021/10/07 04:07:25;;;;;;;;;;;;;;;11.96;83.84;100456.63;5032211;28;19915;-71
2021/10/07 04:09:50;;;;;;;;;;;;;;;11.98;83.17;100451.25;5050093;28;19980;-73
2021/10/07 04:12:15;;;;;;;;;;;;;;;11.97;83.30;100462.78;5049808;28;19952;-73
2021/10/07 04:14:40;;;;;;;;;;;;;;;11.96;83.05;100466.31;5050461;28;20003;-71
2021/10/07 04:17:06;;;;;;;;;;;;;;;11.94;83.74;100469.06;5050578;28;19935;-71
2021/10/07 04:19:31;;;;;;;;;;;;;;;11.89;83.28;100473.69;5049927;28;19974;-73
2021/10/07 04:21:56;;;;;;;;;;;;;;;11.87;83.51;100479.94;5049711;28;19919;-73
2021/10/07 04:24:21;;;;;;;;;;;;;;;11.82;83.32;100478.31;5049690;28;20498;-72
2021/10/07 04:26:46;;;;;;;;;;;;;;;11.78;83.42;100482.00;5050336;28;19913;-76
2021/10/07 04:29:12;;;;;;;;;;;;;;;11.79;84.37;100482.91;5049901;28;19917;-72
2021/10/07 04:31:38;;;;;;;;;;;;;;;11.80;83.81;100481.97;5051962;28;19919;-73
2021/10/07 04:34:03;;;;;;;;;;;;;;;11.83;83.93;100487.09;5048698;28;19962;-73
2021/10/07 04:36:28;;;;;;;;;;;;;;;11.84;83.49;100486.19;5049711;28;19913;-73
2021/10/07 04:38:54;;;;;;;;;;;;;;;11.86;83.94;100486.09;5031286;28;20299;-72
2021/10/07 04:41:19;;;;;;;;;;;;;;;11.91;83.83;100485.03;5048866;28;19913;-73
2021/10/07 04:43:44;;;;;;;;;;;;;;;11.94;83.94;100481.41;5049410;28;19934;-72
2021/10/07 04:46:09;;;;;;;;;;;;;;;11.96;83.52;100487.47;5050002;28;20008;-73
2021/10/07 04:48:35;;;;;;;;;;;;;;;12.00;83.60;100489.06;5049619;28;19955;-72
2021/10/07 04:51:00;;;;;;;;;;;;;;;12.02;83.41;100500.41;5049056;28;19913;-73
2021/10/07 04:53:26;;;;;;;;;;;;;;;12.00;83.35;100486.41;5049042;28;20368;-73
2021/10/07 04:55:55;;;;;;;;;;;;;;;12.01;83.61;100483.72;5049248;28;19927;-72
2021/10/07 04:58:23;;;;;;;;;;;;;;;12.01;83.54;100480.19;5049447;28;19995;-73
2021/10/07 05:00:48;;;;;;;;;;;;;;;12.03;83.53;100488.91;5049220;28;19917;-72
2021/10/07 05:03:13;;;;;;;;;;;;;;;12.02;83.36;100490.69;5049462;28;19920;-73
2021/10/07 05:05:39;;;;;;;;;;;;;;;12.03;83.29;100492.44;5050029;28;19951;-71
2021/10/07 05:08:05;;;;;;;;;;;;;;;12.02;83.74;100492.50;5049339;28;19947;-72
2021/10/07 05:10:30;;;;;;;;;;;;;;;12.01;83.63;100493.41;5031199;28;19921;-74
2021/10/07 05:12:56;;;;;;;;;;;;;;;11.99;84.03;100492.63;5048597;28;19921;-74
2021/10/07 05:15:21;;;;;;;;;;;;;;;11.99;83.43;100495.28;5048824;28;20281;-72
2021/10/07 05:17:47;;;;;;;;;;;;;;;11.98;82.98;100504.09;5014788;28;19912;-73
2021/10/07 05:20:12;;;;;;;;;;;;;;;11.96;83.59;100500.66;5049081;28;19921;-73
2021/10/07 05:22:38;;;;;;;;;;;;;;;11.95;83.72;100509.53;5064499;28;19927;-72
2021/10/07 05:25:03;;;;;;;;;;;;;;;11.95;83.44;100506.91;5048994;28;19920;-72
2021/10/07 05:27:28;;;;;;;;;;;;;;;11.88;83.51;100514.22;5030589;28;19913;-73
2021/10/07 05:29:54;;;;;;;;;;;;;;;11.85;83.45;100521.41;5046680;28;19916;-72
2021/10/07 05:32:19;;;;;;;;;;;;;;;11.88;83.85;100534.50;5050643;28;19912;-73
2021/10/07 05:34:44;;;;;;;;;;;;;;;11.92;83.79;100536.09;5050778;28;19965;-73
2021/10/07 05:37:09;;;;;;;;;;;;;;;11.93;84.12;100529.88;5069146;28;19916;-72
2021/10/07 05:39:35;;;;;;;;;;;;;;;11.93;84.01;100541.28;5068528;28;19974;-72
2021/10/07 05:42:00;;;;;;;;;;;;;;;11.95;83.45;100542.09;5068168;28;19920;-73
2021/10/07 05:44:25;;;;;;;;;;;;;;;11.97;84.08;100542.91;5050473;28;20238;-75
2021/10/07 05:46:50;;;;;;;;;;;;;;;11.96;84.32;100537.66;5054174;28;19912;-73
2021/10/07 05:49:15;;;;;;;;;;;;;;;12.00;83.74;100540.13;5073043;28;20317;-73
2021/10/07 05:51:41;;;;;;;;;;;;;;;12.03;83.56;100531.19;5072415;28;20690;-72
2021/10/07 05:54:06;;;;;;;;;;;;;;;12.06;83.83;100539.00;5072901;28;19951;-73
2021/10/07 05:56:32;;;;;;;;;;;;;;;12.08;84.04;100541.56;5072267;28;20003;-72
2021/10/07 05:58:57;;;;;;;;;;;;;;;12.08;83.65;100550.34;5072233;28;20003;-73
2021/10/07 06:01:22;;;;;;;;;;;;;;;12.12;83.54;100549.31;5071677;28;19919;-73
2021/10/07 06:03:47;;;;;;;;;;;;;;;12.14;82.99;100557.19;5054626;28;19942;-73
2021/10/07 06:06:13;;;;;;;;;;;;;;;12.14;82.96;100558.03;5072537;28;19912;-73
2021/10/07 06:08:38;;;;;;;;;;;;;;;12.14;82.37;100549.25;5073120;28;19967;-72
2021/10/07 06:11:04;;;;;;;;;;;;;;;12.14;82.51;100557.19;5071683;28;20027;-74
2021/10/07 06:13:32;;;;;;;;;;;;;;;12.15;82.20;100550.94;5072025;28;20036;-74
2021/10/07 06:15:58;;;;;;;;;;;;;;;12.16;82.53;100561.47;5072305;28;19912;-73
2021/10/07 06:18:24;;;;;;;;;;;;;;;12.18;82.44;100564.91;5071713;28;19912;-74
2021/10/07 06:20:49;;;;;;;;;;;;;;;12.21;82.10;100561.28;5053973;28;19954;-72
2021/10/07 06:23:14;;;;;;;;;;;;;;;12.22;82.88;100566.47;5071656;28;20017;-73
2021/10/07 06:25:39;;;;;;;;;;;;;;;12.23;82.62;100568.22;5073064;28;19965;-73
2021/10/07 06:28:06;;;;;;;;;;;;;;;12.22;82.93;100571.75;5072157;28;19927;-71
2021/10/07 06:30:31;;;;;;;;;;;;;;;12.23;83.24;100572.63;5069811;28;19920;-74
2021/10/07 06:32:58;;;;;;;;;;;;;;;12.20;82.82;100573.59;5070820;28;19919;-73
2021/10/07 06:35:23;;;;;;;;;;;;;;;12.18;82.95;100577.25;5072202;28;19912;-73
2021/10/07 06:37:49;;;;;;;;;;;;;;;12.18;82.71;100577.25;5071599;28;19987;-73
2021/10/07 06:40:14;;;;;;;;;;;;;;;12.16;83.58;100585.25;5072135;28;19917;-73
2021/10/07 06:42:40;;;;;;;;;;;;;;;12.16;83.49;100595.84;5071582;28;19929;-71
2021/10/07 06:45:06;;;;;;;;;;;;;;;12.17;82.84;100594.91;5054100;28;19917;-73
2021/10/07 06:47:32;;;;;;;;;;;;;;;12.21;82.95;100595.66;5054275;28;19920;-72
2021/10/07 06:49:57;;;;;;;;;;;;;;;12.29;82.80;100600.59;5071719;28;19958;-74
2021/10/07 06:52:23;;;;;;;;;;;;;;;12.31;82.92;100601.41;5071548;28;19944;-73
2021/10/07 06:54:48;;;;;;;;;;;;;;;12.32;82.64;100606.59;5053847;28;20387;-73
2021/10/07 06:57:13;;;;;;;;;;;;;;;12.35;82.46;100601.16;5070783;28;20299;-73
2021/10/07 06:59:38;;;;;;;;;;;;;;;12.37;82.88;100604.59;5071705;28;20065;-73
2021/10/07 07:02:04;;;;;;;;;;;;;;;12.43;82.54;100609.66;5070487;28;19912;-73
2021/10/07 07:04:29;;;;;;;;;;;;;;;12.48;82.37;100613.84;5052175;28;19981;-73
2021/10/07 07:06:54;;;;;;;;;;;;;;;12.51;82.25;100603.16;5071232;28;19967;-71
2021/10/07 07:09:20;;;;;;;;;;;;;;;12.53;81.79;100611.88;5071086;28;19916;-73
2021/10/07 07:11:45;;;;;;;;;;;;;;;12.55;82.09;100613.53;5026553;28;19920;-72
2021/10/07 07:14:10;;;;;;;;;;;;;;;12.59;81.66;100609.81;5051543;28;19935;-73
2021/10/07 07:16:35;;;;;;;;;;;;;;;12.63;81.81;100619.34;5051089;28;19917;-73
2021/10/07 07:19:01;;;;;;;;;;;;;;;12.72;81.50;100611.91;5050406;28;19935;-72
2021/10/07 07:21:29;;;;;;;;;;;;;;;12.83;81.10;100614.94;5050116;28;19948;-72
2021/10/07 07:23:55;;;;;;;;;;;;;;;12.94;81.36;100615.31;5053152;28;19913;-73
2021/10/07 07:26:21;;;;;;;;;;;;;;;13.03;81.18;100622.81;5070948;28;19919;-73
2021/10/07 07:28:46;;;;;;;;;;;;;;;13.12;81.00;100613.63;5070922;28;20398;-72
2021/10/07 07:31:11;;;;;;;;;;;;;;;13.21;80.91;100621.09;5070179;28;19920;-73
2021/10/07 07:33:36;;;;;;;;;;;;;;;13.25;80.79;100625.34;5071311;28;19912;-72
2021/10/07 07:36:02;;;;;;;;;;;;;;;13.27;80.34;100625.31;5052933;28;19919;-73
2021/10/07 07:38:27;;;;;;;;;;;;;;;13.21;80.05;100625.56;5052448;28;19913;-73
2021/10/07 07:40:52;;;;;;;;;;;;;;;13.23;80.10;100634.28;5069844;28;19912;-72
2021/10/07 07:43:20;;;;;;;;;;;;;;;13.25;80.02;100633.28;5070973;28;20018;-72
2021/10/07 07:45:49;;;;;;;;;;;;;;;13.22;80.24;100637.88;5052548;28;19913;-74
2021/10/07 07:48:14;;;;;;;;;;;;;;;13.23;79.85;100635.13;5070284;28;19938;-73
2021/10/07 07:50:40;;;;;;;;;;;;;;;13.27;79.83;100641.19;5071325;28;19916;-71
2021/10/07 07:53:05;;;;;;;;;;;;;;;13.32;79.86;100636.53;5070019;28;19919;-73
2021/10/07 07:55:30;;;;;;;;;;;;;;;13.35;79.74;100640.84;5070375;28;19912;-72
2021/10/07 07:57:56;;;;;;;;;;;;;;;13.36;79.66;100632.81;5070800;28;20391;-74
2021/10/07 08:00:21;;;;;;;;;;;;;;;13.43;79.82;100636.03;5070053;28;19924;-72
2021/10/07 08:02:46;;;;;;;;;;;;;;;13.48;79.83;100641.97;5034484;28;19919;-71
2021/10/07 08:05:12;;;;;;;;;;;;;;;13.60;79.49;100645.81;5070447;28;19912;-73
2021/10/07 08:07:37;;;;;;;;;;;;;;;13.72;79.13;100658.47;5070110;28;19919;-72
2021/10/07 08:10:03;;;;;;;;;;;;;;;13.84;78.14;100651.75;5069773;28;19912;-74
2021/10/07 08:12:34;;;;;;;;;;;;;;;14.00;77.82;100654.47;5068980;28;19912;-73
2021/10/07 08:15:00;;;;;;;;;;;;;;;14.10;76.96;100656.63;5069792;28;19969;-72
2021/10/07 08:17:25;;;;;;;;;;;;;;;14.27;76.88;100660.19;5069809;28;19916;-72
2021/10/07 08:19:51;;;;;;;;;;;;;;;14.43;76.19;100649.69;5070027;28;19920;-73
2021/10/07 08:22:17;;;;;;;;;;;;;;;14.49;74.89;100655.50;5051196;28;19912;-73
2021/10/07 08:24:42;;;;;;;;;;;;;;;14.54;74.26;100650.84;5066452;28;19927;-73
2021/10/07 08:27:07;;;;;;;;;;;;;;;14.63;73.82;100648.69;5070224;28;20483;-72
2021/10/07 08:29:32;;;;;;;;;;;;;;;14.63;73.13;100646.03;5051683;28;20062;-72
2021/10/07 08:31:58;;;;;;;;;;;;;;;14.56;74.02;100642.81;5069114;28;19948;-72
2021/10/07 08:34:23;;;;;;;;;;;;;;;14.47;73.68;100646.78;5069448;28;20641;-72
2021/10/07 08:36:48;;;;;;;;;;;;;;;14.63;73.59;100644.22;5069762;28;19919;-71
2021/10/07 08:39:15;;;;;;;;;;;;;;;14.90;73.53;100649.88;5069057;28;19923;-72
2021/10/07 08:41:41;;;;;;;;;;;;;;;14.96;74.16;100659.28;5069392;28;19912;-72
2021/10/07 08:44:07;;;;;;;;;;;;;;;15.20;72.42;100655.31;5069340;28;19947;-74
2021/10/07 08:46:33;;;;;;;;;;;;;;;15.22;71.85;100661.41;5069838;28;20001;-73
2021/10/07 08:49:01;;;;;;;;;;;;;;;15.21;72.08;100661.47;5068935;28;20003;-73
2021/10/07 08:51:27;;;;;;;;;;;;;;;15.23;71.96;100656.94;5051181;28;19916;-72
2021/10/07 08:53:52;;;;;;;;;;;;;;;15.18;72.31;100662.50;5068653;28;20011;-73
2021/10/07 08:56:20;;;;;;;;;;;;;;;15.15;70.71;100662.69;5069243;28;19924;-72
2021/10/07 08:58:45;;;;;;;;;;;;;;;15.11;71.49;100660.25;5051630;28;19930;-73
2021/10/07 09:01:30;;;;;;;;;;;;;;;15.08;71.46;100663.09;5068513;28;19924;-71
2021/10/07 09:03:55;;;;;;;;;;;;;;;14.95;71.17;100663.75;5048569;28;19963;-72
2021/10/07 09:06:20;;;;;;;;;;;;;;;14.86;70.20;100666.03;5049203;28;19924;-73
2021/10/07 09:08:47;;;;;;;;;;;;;;;14.82;70.41;100668.00;5047995;28;19913;-74
2021/10/07 09:11:26;;;;;;;;;;;;;;;14.84;70.31;100673.22;5048499;28;19917;-72
2021/10/07 09:13:57;;;;;;;;;;;;;;;14.93;70.23;100670.94;5049106;28;19917;-73
2021/10/07 09:16:25;;;;;;;;;;;;;;;15.02;70.37;100669.59;5048743;28;19916;-73
2021/10/07 09:18:51;;;;;;;;;;;;;;;15.41;69.53;100660.41;5048802;28;20241;-71
2021/10/07 09:21:16;;;;;;;;;;;;;;;15.45;68.98;100665.44;5047528;28;19917;-73
2021/10/07 09:23:41;;;;;;;;;;;;;;;15.55;68.25;100659.63;5031773;28;19923;-73
2021/10/07 09:26:07;;;;;;;;;;;;;;;15.58;67.19;100657.66;5030935;28;19924;-72
2021/10/07 09:28:48;;;;;;;;;;;;;;;15.51;67.72;100666.91;5048727;28;19920;-71
2021/10/07 09:31:13;;;;;;;;;;;;;;;15.40;68.31;100671.97;5027889;28;20411;-71
2021/10/07 09:33:40;;;;;;;;;;;;;;;15.19;69.02;100672.19;5040167;28;19912;-73
2021/10/07 09:36:13;;;;;;;;;;;;;;;14.98;69.74;100676.00;5048471;28;19913;-73
2021/10/07 09:38:39;;;;;;;;;;;;;;;14.84;70.43;100683.84;5048879;28;19919;-73
2021/10/07 09:41:11;;;;;;;;;;;;;;;14.78;71.23;100683.22;5048683;28;19912;-74
2021/10/07 09:43:40;;;;;;;;;;;;;;;14.80;71.05;100678.69;5048626;28;20003;-73
2021/10/07 09:46:05;;;;;;;;;;;;;;;14.84;70.66;100676.75;5048622;28;20312;-75
2021/10/07 09:48:37;;;;;;;;;;;;;;;14.81;70.08;100674.25;5048930;28;19971;-74
2021/10/07 09:51:11;;;;;;;;;;;;;;;15.13;67.89;100674.31;5048439;28;19921;-73
2021/10/07 09:53:36;;;;;;;;;;;;;;;15.31;68.91;100670.69;5049319;28;19967;-74
2021/10/07 09:56:01;;;;;;;;;;;;;;;16.70;65.74;100675.09;5048739;28;19924;-72
2021/10/07 09:58:26;;;;;;;;;;;;;;;18.40;57.51;100667.88;5048508;28;19909;-73
2021/10/07 10:00:53;;;;;;;;;;;;;;;19.65;52.95;100668.88;5012905;28;19927;-74
2021/10/07 10:03:19;;;;;;;;;;;;;;;20.69;51.28;100670.09;5028867;28;19917;-74
2021/10/07 10:05:46;;;;;;;;;;;;;;;21.54;48.04;100667.81;5029176;28;19913;-74
2021/10/07 10:08:12;;;;;;;;;;;;;;;22.24;46.91;100663.00;5029417;28;19913;-73
2021/10/07 10:10:38;;;;;;;;;;;;;;;22.58;45.79;100663.66;5028797;28;19920;-74
2021/10/07 10:13:04;;;;;;;;;;;;;;;23.04;44.80;100670.47;5028010;28;19952;-73
2021/10/07 10:15:30;;;;;;;;;;;;;;;23.23;41.97;100660.75;5028714;28;19913;-72
2021/10/07 10:17:55;;;;;;;;;;;;;;;23.43;41.26;100661.69;5028401;28;19923;-73
2021/10/07 10:20:28;;;;;;;;;;;;;;;23.15;41.39;100662.28;5028911;28;19921;-73
2021/10/07 10:22:58;;;;;;;;;;;;;;;21.50;44.27;100679.78;5028931;28;19913;-74
2021/10/07 10:25:25;;;;;;;;;;;;;;;20.24;47.34;100678.81;5061072;28;20392;-72
2021/10/07 10:27:55;;;;;;;;;;;;;;;19.24;50.74;100666.50;5029289;28;19920;-73
2021/10/07 10:30:28;;;;;;;;;;;;;;;18.78;53.59;100681.31;5031740;28;19944;-74
2021/10/07 10:32:55;;;;;;;;;;;;;;;18.42;54.08;100668.63;5030648;28;19920;-73
2021/10/07 10:35:40;;;;;;;;;;;;;;;18.01;54.90;100683.75;5031325;28;20003;-74
2021/10/07 10:38:09;;;;;;;;;;;;;;;17.61;56.33;100688.16;5032489;28;19917;-72
2021/10/07 10:40:35;;;;;;;;;;;;;;;17.15;57.06;100691.94;5032572;28;19946;-74
2021/10/07 10:43:20;;;;;;;;;;;;;;;16.94;58.26;100688.75;5031918;28;20296;-72
2021/10/07 10:45:46;;;;;;;;;;;;;;;16.69;58.68;100691.19;5030497;28;20352;-72
2021/10/07 10:48:12;;;;;;;;;;;;;;;16.57;59.78;100694.59;5032842;28;19996;-73
2021/10/07 10:50:37;;;;;;;;;;;;;;;16.55;60.21;100691.16;5032047;28;20652;-73
2021/10/07 10:53:19;;;;;;;;;;;;;;;16.53;60.58;100689.41;5031502;28;19928;-74
2021/10/07 10:55:45;;;;;;;;;;;;;;;16.46;61.66;100690.72;5051130;28;19922;-72
2021/10/07 10:58:10;;;;;;;;;;;;;;;16.39;61.33;100694.72;5052023;28;19917;-72
2021/10/07 11:00:42;;;;;;;;;;;;;;;16.67;62.15;100699.25;5051224;28;19935;-73
2021/10/07 11:03:07;;;;;;;;;;;;;;;16.91;60.68;100691.63;5050849;28;19968;-73
2021/10/07 11:05:34;;;;;;;;;;;;;;;17.10;57.15;100685.16;5051183;28;20416;-74
2021/10/07 11:08:06;;;;;;;;;;;;;;;17.37;56.41;100694.06;5051153;28;20076;-71
2021/10/07 11:10:31;;;;;;;;;;;;;;;17.44;56.11;100688.38;5033383;28;19916;-72
2021/10/07 11:12:57;;;;;;;;;;;;;;;17.53;56.22;100688.66;5032491;28;19920;-73
2021/10/07 11:15:23;;;;;;;;;;;;;;;17.44;57.91;100691.88;5051134;28;19917;-72
2021/10/07 11:17:49;;;;;;;;;;;;;;;17.00;56.14;100694.66;5051061;28;20021;-73
2021/10/07 11:20:20;;;;;;;;;;;;;;;16.62;57.42;100693.34;5039138;28;20415;-73
2021/10/07 11:23:15;;;;;;;;;;;;;;;16.38;58.50;100702.78;5050257;28;19962;-73
2021/10/07 11:25:48;;;;;;;;;;;;;;;16.20;58.85;100702.06;5018919;28;19913;-73
2021/10/07 11:28:14;;;;;;;;;;;;;;;16.09;59.03;100706.19;5054453;28;20016;-73
2021/10/07 11:30:41;;;;;;;;;;;;;;;16.02;59.61;100703.97;5023323;28;20465;-72
2021/10/07 11:33:07;;;;;;;;;;;;;;;15.97;58.83;100701.56;5029694;28;19974;-72
2021/10/07 11:35:34;;;;;;;;;;;;;;;15.96;58.11;100697.19;5031099;28;19917;-73
2021/10/07 11:37:59;;;;;;;;;;;;;;;15.97;58.70;100701.56;5031349;28;19919;-73
2021/10/07 11:40:51;;;;;;;;;;;;;;;16.05;58.98;100701.16;5031450;23;19924;-73
2021/10/07 11:43:22;;;;;;;;;;;;;;;16.17;59.10;100700.44;5037787;28;19917;-73
2021/10/07 11:45:52;;;;;;;;;;;;;;;16.21;58.72;100701.97;5047405;28;19919;-73
2021/10/07 11:48:18;;;;;;;;;;;;;;;16.20;59.34;100704.72;5071690;28;19923;-73
2021/10/07 11:50:49;;;;;;;;;;;;;;;16.24;59.33;100706.25;5054476;28;19913;-72
2021/10/07 11:53:16;;;;;;;;;;;;;;;16.49;59.00;100714.53;5053189;28;19913;-73
2021/10/07 11:55:45;;;;;;;;;;;;;;;16.61;59.22;100707.59;5055440;28;19921;-72
2021/10/07 11:58:11;;;;;;;;;;;;;;;16.62;58.57;100709.31;5044851;28;19919;-72
2021/10/07 12:00:41;;;;;;;;;;;;;;;16.67;58.45;100712.56;5053990;28;19916;-73
2021/10/07 12:03:08;;;;;;;;;;;;;;;16.65;57.83;100706.47;5056574;28;19947;-72
2021/10/07 12:05:33;;;;;;;;;;;;;;;16.69;58.19;100715.16;5053512;28;19917;-72
2021/10/07 12:08:02;;;;;;;;;;;;;;;16.78;58.42;100711.06;5052223;28;19919;-74
2021/10/07 12:10:35;;;;;;;;;;;;;;;16.77;59.01;100706.69;5051247;28;19916;-75
2021/10/07 12:13:06;;;;;;;;;;;;;;;16.86;57.63;100706.16;5066417;28;20500;-73
2021/10/07 12:15:31;;;;;;;;;;;;;;;16.66;57.08;100707.31;5050179;28;19920;-73
2021/10/07 12:17:57;;;;;;;;;;;;;;;16.73;57.77;100698.03;5065722;28;20445;-74
2021/10/07 12:20:22;;;;;;;;;;;;;;;16.86;57.61;100708.81;5050364;28;19916;-73
2021/10/07 12:22:47;;;;;;;;;;;;;;;16.80;58.18;100707.38;5049135;28;19923;-72
2021/10/07 12:25:17;;;;;;;;;;;;;;;16.64;58.33;100707.44;5050541;28;19913;-74
2021/10/07 12:27:42;;;;;;;;;;;;;;;16.52;56.69;100703.69;5050124;28;20376;-73
2021/10/07 12:30:07;;;;;;;;;;;;;;;16.52;57.12;100708.16;5048158;28;19913;-73
2021/10/07 12:32:33;;;;;;;;;;;;;;;16.63;57.07;100715.50;5049150;28;19924;-73
2021/10/07 12:34:58;;;;;;;;;;;;;;;16.62;57.39;100706.66;5037779;28;19913;-74